Time;durP1;ratioP1;P1;durP2;ratioP2;P2;SDS_P1;SDS_P2;PMS_P1;PMS_P2;Temp;Humidity;BMP_temperature;BMP_pressure;BME280_temperature;BME280_humidity;BME280_pressure;Samples;Min_cycle;Max_cycle;Signal;HPM_P1;HPM_P2
2021/03/03 00:00:35;;;;;;;9.82;1.45;;;26.40;13.20;;;;;;5093942;28;20121;-70
2021/03/03 00:03:01;;;;;;;10.73;1.70;;;26.30;15.30;;;;;;5091977;28;20076;-71
2021/03/03 00:05:28;;;;;;;18.55;1.67;;;26.10;14.10;;;;;;5094532;28;20072;-72
2021/03/03 00:07:55;;;;;;;10.75;1.60;;;25.90;14.60;;;;;;5088204;28;20076;-70
2021/03/03 00:10:21;;;;;;;20.98;2.10;;;25.90;13.50;;;;;;5094093;28;20080;-71
2021/03/03 00:12:48;;;;;;;10.82;1.67;;;25.90;13.20;;;;;;5089060;28;20112;-70
2021/03/03 00:15:15;;;;;;;9.00;1.52;;;25.80;13.20;;;;;;5096535;28;20155;-70
2021/03/03 00:17:42;;;;;;;19.08;2.30;;;25.80;13.10;;;;;;5098881;28;20077;-70
2021/03/03 00:20:11;;;;;;;12.18;2.05;;;25.80;14.60;;;;;;5097157;28;20574;-71
2021/03/03 00:22:38;;;;;;;12.55;1.90;;;25.80;13.60;;;;;;5094237;28;20110;-70
2021/03/03 00:25:06;;;;;;;11.35;2.17;;;25.80;15.40;;;;;;5092878;28;20072;-70
2021/03/03 00:27:32;;;;;;;14.95;2.17;;;25.90;16.30;;;;;;5094695;28;20077;-70
2021/03/03 00:29:59;;;;;;;12.65;2.03;;;26.00;14.60;;;;;;5093174;28;20469;-69
2021/03/03 00:32:26;;;;;;;23.42;2.00;;;26.00;15.80;;;;;;5095089;28;20104;-69
2021/03/03 00:34:55;;;;;;;13.63;1.80;;;26.00;12.70;;;;;;5089720;28;20097;-68
2021/03/03 00:37:22;;;;;;;7.95;1.92;;;26.00;13.00;;;;;;5096520;28;20068;-70
2021/03/03 00:39:49;;;;;;;16.38;2.70;;;26.00;15.70;;;;;;5098567;28;20163;-70
2021/03/03 00:42:16;;;;;;;25.27;2.10;;;26.00;13.70;;;;;;5095464;28;20076;-71
2021/03/03 00:44:45;;;;;;;12.88;2.33;;;26.30;15.00;;;;;;5098902;28;20067;-68
2021/03/03 00:47:12;;;;;;;9.57;2.08;;;26.50;15.00;;;;;;5093697;28;20452;-72
2021/03/03 00:49:38;;;;;;;15.95;2.60;;;26.40;13.10;;;;;;5098522;28;20077;-69
2021/03/03 00:52:05;;;;;;;13.00;2.38;;;26.10;14.30;;;;;;5101616;28;20620;-69
2021/03/03 00:54:32;;;;;;;16.95;1.85;;;25.90;13.10;;;;;;5093586;28;20104;-70
2021/03/03 00:56:58;;;;;;;17.35;2.28;;;25.60;13.30;;;;;;5096097;28;20147;-70
2021/03/03 00:59:25;;;;;;;13.15;2.65;;;25.50;13.90;;;;;;5096604;28;20076;-72
2021/03/03 01:01:51;;;;;;;17.50;2.53;;;25.40;13.70;;;;;;5105864;28;20076;-69
2021/03/03 01:04:18;;;;;;;9.63;1.92;;;25.20;15.20;;;;;;5099847;28;20068;-69
2021/03/03 01:06:44;;;;;;;13.27;1.80;;;25.00;13.10;;;;;;5099986;28;20064;-70
2021/03/03 01:09:11;;;;;;;12.07;2.10;;;24.90;14.30;;;;;;5105916;28;20414;-67
2021/03/03 01:11:37;;;;;;;15.10;2.47;;;24.70;17.00;;;;;;5101417;28;20123;-68
2021/03/03 01:14:04;;;;;;;13.57;2.20;;;24.50;14.70;;;;;;5101163;28;20100;-68
2021/03/03 01:16:31;;;;;;;21.50;2.60;;;24.40;15.40;;;;;;5097417;28;20123;-68
2021/03/03 01:18:57;;;;;;;14.45;2.40;;;24.20;16.80;;;;;;5094577;28;20077;-68
2021/03/03 01:21:24;;;;;;;12.95;2.15;;;24.00;17.10;;;;;;5097672;28;20092;-68
2021/03/03 01:23:50;;;;;;;26.25;2.60;;;23.90;16.40;;;;;;5099988;28;20164;-70
2021/03/03 01:26:17;;;;;;;22.90;2.83;;;23.60;15.60;;;;;;5094223;28;20084;-67
2021/03/03 01:28:44;;;;;;;18.55;3.03;;;23.50;16.40;;;;;;5105252;28;20072;-67
2021/03/03 01:31:10;;;;;;;13.30;1.75;;;23.40;15.80;;;;;;5098110;28;20076;-67
2021/03/03 01:33:37;;;;;;;11.93;2.30;;;23.20;16.80;;;;;;5097460;28;20498;-68
2021/03/03 01:36:05;;;;;;;15.55;2.28;;;23.10;18.30;;;;;;5095773;28;20449;-68
2021/03/03 01:38:32;;;;;;;17.02;2.10;;;23.00;17.90;;;;;;5095417;28;20531;-68
2021/03/03 01:40:59;;;;;;;15.52;2.83;;;22.80;18.00;;;;;;5095985;28;20445;-68
2021/03/03 01:43:30;;;;;;;22.00;2.67;;;22.60;20.40;;;;;;5097352;28;20084;-68
2021/03/03 01:46:00;;;;;;;16.67;2.40;;;22.40;19.80;;;;;;5097238;28;20068;-67
2021/03/03 01:48:27;;;;;;;20.40;2.83;;;22.20;19.50;;;;;;5095593;28;20088;-67
2021/03/03 01:50:54;;;;;;;24.25;3.10;;;22.10;19.90;;;;;;5082643;28;20064;-66
2021/03/03 01:53:20;;;;;;;25.40;3.30;;;21.90;21.80;;;;;;5095689;28;20097;-67
2021/03/03 01:55:47;;;;;;;18.05;2.58;;;21.80;22.40;;;;;;5095699;28;20535;-69
2021/03/03 01:58:13;;;;;;;21.17;2.30;;;21.70;22.50;;;;;;5098466;28;20154;-68
2021/03/03 02:00:40;;;;;;;15.45;3.20;;;21.50;22.40;;;;;;5094483;28;20126;-70
2021/03/03 02:03:07;;;;;;;18.23;2.80;;;21.30;22.00;;;;;;5093236;28;20114;-67
2021/03/03 02:05:33;;;;;;;23.48;2.92;;;21.10;22.20;;;;;;5094242;28;20174;-68
2021/03/03 02:08:04;;;;;;;14.77;3.15;;;21.00;24.60;;;;;;5093792;28;20072;-69
2021/03/03 02:10:50;;;;;;;15.50;3.10;;;20.90;23.90;;;;;;5095441;28;20127;-70
2021/03/03 02:13:52;;;;;;;16.90;3.30;;;20.80;24.40;;;;;;5096431;28;20113;-68
2021/03/03 02:16:20;;;;;;;21.75;3.05;;;20.60;25.60;;;;;;5043192;28;20085;-68
2021/03/03 02:18:49;;;;;;;18.98;3.20;;;20.50;25.50;;;;;;5095994;28;20085;-68
2021/03/03 02:21:24;;;;;;;18.23;3.30;;;20.40;25.20;;;;;;5094477;28;20080;-68
2021/03/03 02:24:18;;;;;;;16.63;3.72;;;20.30;25.00;;;;;;5094278;28;20079;-69
2021/03/03 02:26:48;;;;;;;18.33;3.17;;;20.10;23.80;;;;;;5097759;28;20191;-68
2021/03/03 02:29:20;;;;;;;17.23;3.58;;;19.90;23.90;;;;;;5096599;28;20164;-68
2021/03/03 02:31:51;;;;;;;28.58;3.90;;;19.90;26.70;;;;;;5095575;28;20093;-66
2021/03/03 02:34:20;;;;;;;26.45;3.78;;;19.80;26.60;;;;;;5093716;28;20104;-66
2021/03/03 02:36:48;;;;;;;26.05;3.95;;;19.70;28.20;;;;;;5095415;28;20614;-68
2021/03/03 02:39:16;;;;;;;17.75;3.50;;;19.60;28.00;;;;;;5094090;28;20084;-67
2021/03/03 02:41:46;;;;;;;29.25;4.90;;;19.50;26.10;;;;;;5086188;28;20135;-69
2021/03/03 02:44:13;;;;;;;15.75;3.85;;;19.40;25.10;;;;;;5094019;28;20088;-69
2021/03/03 02:46:43;;;;;;;27.52;4.00;;;19.30;27.10;;;;;;5094325;28;20152;-68
2021/03/03 02:49:11;;;;;;;26.50;4.78;;;19.20;26.70;;;;;;5096858;28;20129;-68
2021/03/03 02:51:37;;;;;;;22.10;3.58;;;19.10;27.00;;;;;;5111855;27;20076;-68
2021/03/03 02:54:09;;;;;;;25.13;3.83;;;19.00;27.60;;;;;;5093053;28;20089;-68
2021/03/03 02:56:36;;;;;;;17.00;3.90;;;18.90;29.90;;;;;;5099414;28;20079;-69
2021/03/03 02:59:28;;;;;;;23.67;4.28;;;18.80;29.80;;;;;;5093889;28;20076;-69
2021/03/03 03:01:57;;;;;;;29.42;4.13;;;18.80;28.60;;;;;;5091634;28;20068;-69
2021/03/03 03:04:27;;;;;;;31.23;4.70;;;18.80;28.50;;;;;;5096754;28;20084;-69
2021/03/03 03:06:56;;;;;;;27.52;5.05;;;18.70;28.70;;;;;;5094041;28;20064;-69
2021/03/03 03:09:25;;;;;;;30.40;4.85;;;18.60;28.20;;;;;;5089890;28;20109;-68
2021/03/03 03:11:53;;;;;;;38.50;5.10;;;18.50;27.70;;;;;;5087141;28;20116;-69
2021/03/03 03:14:26;;;;;;;25.75;5.65;;;18.50;28.80;;;;;;5093899;28;20265;-69
2021/03/03 03:16:59;;;;;;;36.42;5.78;;;18.30;28.60;;;;;;5096739;28;20095;-70
2021/03/03 03:19:37;;;;;;;31.80;6.35;;;18.30;29.50;;;;;;5093934;28;20065;-70
2021/03/03 03:22:07;;;;;;;24.80;5.40;;;18.20;29.70;;;;;;5098439;28;20072;-69
2021/03/03 03:24:36;;;;;;;37.35;6.00;;;18.20;31.00;;;;;;5091186;28;20077;-70
2021/03/03 03:27:07;;;;;;;45.95;6.60;;;18.10;30.10;;;;;;5091963;28;20077;-69
2021/03/03 03:29:35;;;;;;;44.22;6.00;;;18.00;30.40;;;;;;5090023;28;20068;-70
2021/03/03 03:32:02;;;;;;;41.00;7.18;;;18.00;30.90;;;;;;5090267;28;20077;-68
2021/03/03 03:34:28;;;;;;;40.35;6.88;;;17.90;30.70;;;;;;5093152;28;20450;-70
2021/03/03 03:36:55;;;;;;;49.20;7.32;;;17.80;33.40;;;;;;5095686;28;20514;-70
2021/03/03 03:39:22;;;;;;;40.92;7.22;;;17.80;32.70;;;;;;5090455;28;20077;-69
2021/03/03 03:41:49;;;;;;;36.53;7.38;;;17.80;32.90;;;;;;5093980;28;20064;-70
2021/03/03 03:44:22;;;;;;;40.20;7.57;;;17.70;32.00;;;;;;5098718;28;20116;-71
2021/03/03 03:46:49;;;;;;;29.00;7.40;;;17.70;33.30;;;;;;5101419;28;20166;-71
2021/03/03 03:49:17;;;;;;;42.40;9.05;;;17.60;32.90;;;;;;5101351;28;20297;-71
2021/03/03 03:51:44;;;;;;;64.18;10.55;;;17.50;31.30;;;;;;5096570;28;20148;-69
2021/03/03 03:54:11;;;;;;;;;;;17.40;31.50;;;;;;5097961;28;20111;-70
2021/03/03 03:56:40;;;;;;;51.40;11.20;;;17.40;33.10;;;;;;5099149;28;19965;-71
2021/03/03 03:59:07;;;;;;;60.42;10.57;;;17.30;32.20;;;;;;5099595;28;20099;-70
2021/03/03 04:01:34;;;;;;;68.43;12.38;;;17.20;32.50;;;;;;5096551;28;20138;-70
2021/03/03 04:04:00;;;;;;;;;;;17.20;32.30;;;;;;5110956;28;20079;-69
2021/03/03 04:06:26;;;;;;;66.05;12.02;;;17.10;32.80;;;;;;5093554;28;19964;-70
2021/03/03 04:08:52;;;;;;;;;;;17.10;33.70;;;;;;5098226;28;20073;-70
2021/03/03 04:11:19;;;;;;;65.50;13.63;;;17.00;33.50;;;;;;5099645;28;19956;-70
2021/03/03 04:13:45;;;;;;;58.47;14.63;;;17.00;33.80;;;;;;5095390;28;20088;-69
2021/03/03 04:16:12;;;;;;;;;;;16.90;32.90;;;;;;5095862;28;20067;-70
2021/03/03 04:18:38;;;;;;;73.47;16.10;;;16.90;33.60;;;;;;5094481;28;20014;-69
2021/03/03 04:21:04;;;;;;;;;;;16.80;33.00;;;;;;5099837;28;20142;-69
2021/03/03 04:23:31;;;;;;;77.22;16.08;;;16.80;33.40;;;;;;5097746;28;19956;-68
2021/03/03 04:25:58;;;;;;;69.40;15.68;;;16.80;34.00;;;;;;5097802;28;20651;-68
2021/03/03 04:28:24;;;;;;;75.32;16.67;;;16.70;33.50;;;;;;5101648;28;20077;-70
2021/03/03 04:30:51;;;;;;;67.90;18.75;;;16.70;35.60;;;;;;5100472;28;20090;-69
2021/03/03 04:33:17;;;;;;;;;;;16.60;34.70;;;;;;5101194;28;20093;-69
2021/03/03 04:35:44;;;;;;;102.97;27.10;;;16.60;33.30;;;;;;5100268;28;20027;-69
2021/03/03 04:38:11;;;;;;;84.00;27.20;;;16.50;33.30;;;;;;5107300;28;20094;-69
2021/03/03 04:40:38;;;;;;;101.75;33.63;;;16.50;33.90;;;;;;5099553;28;20560;-70
2021/03/03 04:43:09;;;;;;;92.60;31.58;;;16.50;34.70;;;;;;5103785;28;20073;-69
2021/03/03 04:45:36;;;;;;;99.82;27.38;;;16.50;34.70;;;;;;5104657;28;20624;-70
2021/03/03 04:48:03;;;;;;;88.43;25.08;;;16.40;34.70;;;;;;5105429;28;20068;-70
2021/03/03 04:50:32;;;;;;;79.28;22.52;;;16.40;35.70;;;;;;5101352;28;20517;-71
2021/03/03 04:52:59;;;;;;;87.20;22.38;;;16.40;35.80;;;;;;5105751;28;20546;-70
2021/03/03 04:55:26;;;;;;;78.00;22.05;;;16.30;36.60;;;;;;5096266;28;20068;-70
2021/03/03 04:57:59;;;;;;;75.55;21.55;;;16.30;36.30;;;;;;5095357;28;20076;-70
2021/03/03 05:00:26;;;;;;;93.30;24.70;;;16.20;35.90;;;;;;5101545;28;20091;-70
2021/03/03 05:02:56;;;;;;;71.63;23.60;;;16.20;36.70;;;;;;5096681;28;20073;-68
2021/03/03 05:05:25;;;;;;;92.05;25.42;;;16.20;36.40;;;;;;5096027;28;20118;-68
2021/03/03 05:07:52;;;;;;;87.15;24.05;;;16.10;35.80;;;;;;5102174;28;20119;-71
2021/03/03 05:10:18;;;;;;;;;;;16.10;35.80;;;;;;5094345;28;20165;-67
2021/03/03 05:12:44;;;;;;;87.03;22.33;;;16.10;35.90;;;;;;5098156;28;19984;-65
2021/03/03 05:15:11;;;;;;;;;;;16.00;36.90;;;;;;5099771;28;20106;-67
2021/03/03 05:17:37;;;;;;;81.30;20.73;;;16.10;37.50;;;;;;5094186;28;19960;-66
2021/03/03 05:20:06;;;;;;;90.63;21.77;;;16.00;37.30;;;;;;5098419;28;20080;-68
2021/03/03 05:22:33;;;;;;;92.55;22.42;;;16.00;36.20;;;;;;5094932;28;20072;-67
2021/03/03 05:24:59;;;;;;;109.10;22.85;;;15.90;35.50;;;;;;5096903;28;20535;-66
2021/03/03 05:27:25;;;;;;;;;;;15.90;35.90;;;;;;5095791;28;20083;-69
2021/03/03 05:29:55;;;;;;;98.43;22.73;;;15.90;37.10;;;;;;5099024;28;19960;-70
2021/03/03 05:32:21;;;;;;;92.40;22.75;;;15.80;36.30;;;;;;5098874;28;20104;-69
2021/03/03 05:34:50;;;;;;;109.97;21.77;;;15.80;36.00;;;;;;5094240;28;20437;-68
2021/03/03 05:37:17;;;;;;;120.68;21.45;;;15.80;37.00;;;;;;5098033;28;20073;-68
2021/03/03 05:39:43;;;;;;;;;;;15.70;36.30;;;;;;5094581;28;20072;-68
2021/03/03 05:42:10;;;;;;;109.27;20.00;;;15.70;35.90;;;;;;5096347;28;19967;-68
2021/03/03 05:44:37;;;;;;;117.47;20.23;;;15.60;36.10;;;;;;5098396;28;20317;-68
2021/03/03 05:47:04;;;;;;;123.13;19.48;;;15.60;37.30;;;;;;5096804;28;20065;-68
2021/03/03 05:49:38;;;;;;;130.57;20.75;;;15.60;36.40;;;;;;5098665;28;20161;-68
2021/03/03 05:52:06;;;;;;;121.30;21.58;;;15.60;37.00;;;;;;5093122;28;20079;-67
2021/03/03 05:54:33;;;;;;;118.45;20.80;;;15.50;36.90;;;;;;5093400;28;20099;-67
2021/03/03 05:57:00;;;;;;;111.20;18.90;;;15.60;37.10;;;;;;5098789;28;20447;-67
2021/03/03 05:59:28;;;;;;;98.93;17.15;;;15.50;36.80;;;;;;5104327;28;20076;-68
2021/03/03 06:01:54;;;;;;;94.28;16.70;;;15.50;36.50;;;;;;5117138;28;20077;-68
2021/03/03 06:04:21;;;;;;;115.03;17.50;;;15.40;36.40;;;;;;5118098;28;20180;-67
2021/03/03 06:06:49;;;;;;;111.93;17.23;;;15.40;36.30;;;;;;5117966;28;20084;-67
2021/03/03 06:09:16;;;;;;;100.00;16.20;;;15.40;37.10;;;;;;5116463;28;20086;-67
2021/03/03 06:11:43;;;;;;;;;;;15.40;36.40;;;;;;5120336;28;20607;-68
2021/03/03 06:14:09;;;;;;;;;;;15.30;37.10;;;;;;5121106;28;21436;-67
2021/03/03 06:16:38;;;;;;;91.53;16.38;;;15.30;36.80;;;;;;5118267;28;20479;-67
2021/03/03 06:19:05;;;;;;;97.70;15.70;;;15.20;37.50;;;;;;5117163;28;20065;-67
2021/03/03 06:21:33;;;;;;;103.63;18.00;;;15.20;37.70;;;;;;5116344;28;20077;-68
2021/03/03 06:24:11;;;;;;;118.35;19.23;;;15.10;38.20;;;;;;5116667;28;20072;-71
2021/03/03 06:26:59;;;;;;;122.90;20.05;;;15.00;37.60;;;;;;5117028;28;20101;-68
2021/03/03 06:29:25;;;;;;;;;;;15.00;37.60;;;;;;5111420;28;20078;-66
2021/03/03 06:31:52;;;;;;;127.13;17.83;;;15.00;37.70;;;;;;5118644;28;20035;-68
2021/03/03 06:34:24;;;;;;;107.03;18.08;;;15.00;38.60;;;;;;5115027;28;20096;-68
2021/03/03 06:36:58;;;;;;;127.90;19.63;;;14.90;39.30;;;;;;5114015;28;20072;-67
2021/03/03 06:39:27;;;;;;;100.82;19.25;;;14.90;40.50;;;;;;5113252;28;20079;-68
2021/03/03 06:41:58;;;;;;;107.07;18.15;;;14.90;40.20;;;;;;5112988;28;20437;-68
2021/03/03 06:44:45;;;;;;;97.10;16.80;;;14.90;41.10;;;;;;5117651;28;20076;-67
2021/03/03 06:47:11;;;;;;;115.63;16.92;;;14.90;40.30;;;;;;5108047;28;20087;-68
2021/03/03 06:49:39;;;;;;;;;;;14.80;39.60;;;;;;5112614;28;20077;-69
2021/03/03 06:52:06;;;;;;;;;;;14.70;39.40;;;;;;5116693;28;19956;-68
2021/03/03 06:54:34;;;;;;;;;;;14.70;40.20;;;;;;5116644;28;19964;-68
2021/03/03 06:57:08;;;;;;;116.75;17.15;;;14.60;39.90;;;;;;5114810;28;19956;-68
2021/03/03 06:59:36;;;;;;;116.25;18.73;;;14.50;38.90;;;;;;5113786;28;20053;-69
2021/03/03 07:02:12;;;;;;;108.25;17.67;;;14.50;38.70;;;;;;5116229;28;20080;-69
2021/03/03 07:04:59;;;;;;;144.88;19.60;;;14.50;39.40;;;;;;5111091;28;20065;-68
2021/03/03 07:07:26;;;;;;;110.68;17.88;;;14.50;39.50;;;;;;5111021;28;20075;-69
2021/03/03 07:09:59;;;;;;;116.18;18.88;;;14.50;40.00;;;;;;5095980;28;20505;-69
2021/03/03 07:12:33;;;;;;;104.82;17.77;;;14.50;39.40;;;;;;5111960;28;20127;-68
2021/03/03 07:15:06;;;;;;;96.18;20.40;;;14.50;40.10;;;;;;5112678;28;20106;-69
2021/03/03 07:17:39;;;;;;;106.07;19.60;;;14.30;37.70;;;;;;5129479;27;20091;-68
2021/03/03 07:20:15;;;;;;;108.70;18.42;;;14.30;37.80;;;;;;5117446;28;20073;-67
2021/03/03 07:22:50;;;;;;;94.30;19.00;;;14.30;39.00;;;;;;5116069;28;20072;-68
2021/03/03 07:25:18;;;;;;;91.40;17.40;;;14.30;39.70;;;;;;5117160;28;20102;-68
2021/03/03 07:27:50;;;;;;;103.30;18.15;;;14.20;39.40;;;;;;5110363;28;20091;-68
2021/03/03 07:30:26;;;;;;;83.82;17.85;;;14.20;39.70;;;;;;5110376;28;20072;-68
2021/03/03 07:32:53;;;;;;;89.97;19.55;;;14.20;40.40;;;;;;5109352;28;20072;-69
2021/03/03 07:35:20;;;;;;;92.53;19.02;;;14.10;39.70;;;;;;5114489;28;20096;-68
2021/03/03 07:37:55;;;;;;;109.65;21.83;;;14.20;39.70;;;;;;5112251;28;20136;-68
2021/03/03 07:40:26;;;;;;;115.65;21.27;;;14.10;38.40;;;;;;5110522;28;20072;-69
2021/03/03 07:42:56;;;;;;;103.40;20.35;;;14.00;39.20;;;;;;5115277;28;20065;-67
2021/03/03 07:45:26;;;;;;;95.10;20.88;;;14.00;39.80;;;;;;5114000;28;20080;-67
2021/03/03 07:47:56;;;;;;;104.93;21.30;;;14.00;40.90;;;;;;5118410;28;20072;-68
2021/03/03 07:50:23;;;;;;;100.82;22.33;;;13.90;41.40;;;;;;5114215;28;20084;-68
2021/03/03 07:52:56;;;;;;;119.97;24.10;;;13.90;41.00;;;;;;5115572;28;20073;-68
2021/03/03 07:55:24;;;;;;;110.95;22.05;;;13.80;40.60;;;;;;5111481;28;20080;-66
2021/03/03 07:57:53;;;;;;;121.07;23.52;;;13.70;40.90;;;;;;5113373;28;20069;-67
2021/03/03 08:00:32;;;;;;;123.57;23.30;;;13.70;41.30;;;;;;5099875;28;20089;-67
2021/03/03 08:02:59;;;;;;;126.78;26.02;;;13.70;41.00;;;;;;5113251;28;20126;-67
2021/03/03 08:05:36;;;;;;;;;;;13.60;40.90;;;;;;5116386;28;20095;-67
2021/03/03 08:08:30;;;;;;;128.40;26.05;;;13.60;40.70;;;;;;5115482;28;19960;-67
2021/03/03 08:11:05;;;;;;;140.20;28.20;;;13.60;41.50;;;;;;5116774;28;20106;-67
2021/03/03 08:13:33;;;;;;;173.40;29.73;;;13.60;41.70;;;;;;5114094;28;20112;-68
2021/03/03 08:16:04;;;;;;;168.82;29.50;;;13.60;41.20;;;;;;5122524;28;20075;-67
2021/03/03 08:18:37;;;;;;;152.93;29.65;;;13.50;41.50;;;;;;5096448;28;20106;-68
2021/03/03 08:21:13;;;;;;;162.75;30.00;;;13.50;42.80;;;;;;5117120;28;20079;-67
2021/03/03 08:23:46;;;;;;;164.55;31.75;;;13.50;42.90;;;;;;5115514;28;20095;-67
2021/03/03 08:26:16;;;;;;;193.98;34.58;;;13.40;42.00;;;;;;5117166;28;20080;-67
2021/03/03 08:28:44;;;;;;;171.15;35.97;;;13.40;41.20;;;;;;5117583;28;20132;-68
2021/03/03 08:31:16;;;;;;;163.23;34.40;;;13.40;42.10;;;;;;5117310;28;20070;-68
2021/03/03 08:33:49;;;;;;;188.80;35.08;;;13.30;42.70;;;;;;5119008;28;20103;-67
2021/03/03 08:36:18;;;;;;;206.52;35.92;;;13.30;42.00;;;;;;5115071;28;20068;-68
2021/03/03 08:39:10;;;;;;;211.02;38.38;;;13.30;41.90;;;;;;5119693;28;20533;-68
2021/03/03 08:41:39;;;;;;;203.38;36.80;;;13.20;42.20;;;;;;5109575;28;20520;-68
2021/03/03 08:44:18;;;;;;;198.88;37.13;;;13.20;42.00;;;;;;5120461;28;20613;-67
2021/03/03 08:46:48;;;;;;;195.80;37.90;;;13.10;42.00;;;;;;5119112;28;20136;-67
2021/03/03 08:49:28;;;;;;;186.27;37.33;;;13.00;42.10;;;;;;5116303;28;20076;-68
2021/03/03 08:52:11;;;;;;;175.68;36.33;;;13.00;41.90;;;;;;5113120;28;20069;-67
2021/03/03 08:54:49;;;;;;;161.10;35.20;;;13.00;42.30;;;;;;5123617;28;20149;-67
2021/03/03 08:57:35;;;;;;;197.30;38.90;;;13.00;41.90;;;;;;5103048;28;20084;-68
2021/03/03 09:00:04;;;;;;;169.32;36.15;;;13.10;42.00;;;;;;5121612;28;20076;-67
2021/03/03 09:02:39;;;;;;;184.20;36.85;;;13.00;42.70;;;;;;5119844;28;20069;-69
2021/03/03 09:05:13;;;;;;;180.95;35.08;;;13.00;43.10;;;;;;5116228;28;20095;-67
2021/03/03 09:07:41;;;;;;;172.55;34.17;;;13.00;43.00;;;;;;5100469;28;20089;-68
2021/03/03 09:10:19;;;;;;;191.25;35.95;;;13.00;43.00;;;;;;5114260;28;20083;-68
2021/03/03 09:12:46;;;;;;;173.43;35.95;;;13.00;43.20;;;;;;5117657;28;20150;-67
2021/03/03 09:15:15;;;;;;;195.43;37.85;;;13.00;42.90;;;;;;5119391;28;20177;-67
2021/03/03 09:17:45;;;;;;;171.57;37.60;;;12.90;43.00;;;;;;5120108;28;20065;-67
2021/03/03 09:20:15;;;;;;;178.82;37.55;;;12.90;42.50;;;;;;5114489;28;20095;-67
2021/03/03 09:22:44;;;;;;;163.70;34.33;;;12.90;44.30;;;;;;5117566;28;20072;-68
2021/03/03 09:25:17;;;;;;;193.02;38.42;;;12.90;43.40;;;;;;5117671;28;20072;-68
2021/03/03 09:27:55;;;;;;;158.57;37.55;;;12.80;43.70;;;;;;5114590;28;20076;-67
2021/03/03 09:30:24;;;;;;;164.05;38.25;;;12.70;42.60;;;;;;5116348;28;20080;-68
2021/03/03 09:32:51;;;;;;;170.63;36.85;;;12.70;43.40;;;;;;5113731;28;20060;-67
2021/03/03 09:35:31;;;;;;;142.10;35.30;;;12.70;43.70;;;;;;5112178;28;20122;-68
2021/03/03 09:38:00;;;;;;;175.40;38.97;;;12.60;43.90;;;;;;5107152;28;20072;-66
2021/03/03 09:40:32;;;;;;;157.60;36.55;;;12.60;43.70;;;;;;5110010;28;20136;-68
2021/03/03 09:43:00;;;;;;;161.60;37.58;;;12.60;43.10;;;;;;5108442;28;20106;-68
2021/03/03 09:45:27;;;;;;;151.63;36.20;;;12.60;43.30;;;;;;5113069;28;20073;-68
2021/03/03 09:47:56;;;;;;;164.40;34.55;;;12.60;43.50;;;;;;5111166;28;20153;-68
2021/03/03 09:50:30;;;;;;;140.93;32.45;;;12.60;43.30;;;;;;5111778;28;20076;-67
2021/03/03 09:52:58;;;;;;;114.85;30.88;;;12.60;42.00;;;;;;5109994;28;20588;-66
2021/03/03 09:55:27;;;;;;;121.07;29.63;;;12.60;41.90;;;;;;5115445;28;20103;-67
2021/03/03 09:57:55;;;;;;;116.03;28.88;;;12.70;42.90;;;;;;5112935;28;20491;-67
2021/03/03 10:00:24;;;;;;;102.63;25.88;;;12.60;43.10;;;;;;5107236;28;20077;-66
2021/03/03 10:03:02;;;;;;;84.18;21.67;;;12.60;41.90;;;;;;5109446;28;20072;-66
2021/03/03 10:05:34;;;;;;;78.72;22.48;;;12.60;41.60;;;;;;5126484;27;20080;-67
2021/03/03 10:08:15;;;;;;;79.30;21.63;;;12.50;42.70;;;;;;5115292;28;20486;-66
2021/03/03 10:10:53;;;;;;;71.78;18.17;;;12.50;42.20;;;;;;5112714;28;20995;-67
2021/03/03 10:13:25;;;;;;;57.47;17.35;;;12.50;42.20;;;;;;5112999;28;20130;-67
2021/03/03 10:15:51;;;;;;;64.68;14.88;;;12.40;42.60;;;;;;5110247;28;20475;-66
2021/03/03 10:18:21;;;;;;;54.60;14.25;;;12.50;48.20;;;;;;5112558;28;20091;-67
2021/03/03 10:20:55;;;;;;;43.58;12.13;;;12.50;43.90;;;;;;5113242;28;20132;-66
2021/03/03 10:23:24;;;;;;;48.47;11.93;;;12.40;44.30;;;;;;5113062;28;20201;-66
2021/03/03 10:26:07;;;;;;;49.47;12.00;;;12.40;44.60;;;;;;5106665;28;20069;-66
2021/03/03 10:28:37;;;;;;;41.90;10.93;;;12.40;45.40;;;;;;5105222;28;20079;-66
2021/03/03 10:31:05;;;;;;;34.58;10.35;;;12.40;45.80;;;;;;5107199;28;20072;-66
2021/03/03 10:33:36;;;;;;;37.78;10.55;;;12.40;46.10;;;;;;5110837;28;20099;-66
2021/03/03 10:36:18;;;;;;;39.17;10.63;;;12.50;46.90;;;;;;5104787;28;20072;-67
2021/03/03 10:38:55;;;;;;;46.30;13.18;;;12.50;47.00;;;;;;5107434;28;20087;-67
2021/03/03 10:41:22;;;;;;;;;;;12.50;47.50;;;;;;5110056;28;20073;-66
2021/03/03 10:43:50;;;;;;;36.85;12.57;;;12.40;49.30;;;;;;5107505;28;19956;-67
2021/03/03 10:46:18;;;;;;;27.08;9.15;;;12.50;51.20;;;;;;5103000;28;20111;-66
2021/03/03 10:48:46;;;;;;;30.67;7.82;;;12.50;52.70;;;;;;5107496;28;20072;-67
2021/03/03 10:51:15;;;;;;;22.13;6.50;;;12.50;53.90;;;;;;5110020;27;20073;-66
2021/03/03 10:53:54;;;;;;;30.67;6.85;;;12.60;55.50;;;;;;5106649;28;20138;-67
2021/03/03 10:56:26;;;;;;;26.60;6.65;;;12.60;56.10;;;;;;5099252;28;20076;-66
2021/03/03 10:58:54;;;;;;;24.63;6.35;;;12.60;56.00;;;;;;5101490;28;20079;-67
2021/03/03 11:01:21;;;;;;;18.92;6.75;;;12.60;55.30;;;;;;5097764;28;20191;-67
2021/03/03 11:03:51;;;;;;;17.65;6.25;;;12.60;54.50;;;;;;5101830;28;20077;-66
2021/03/03 11:06:18;;;;;;;23.65;7.13;;;12.60;53.50;;;;;;5105073;28;20075;-66
2021/03/03 11:08:44;;;;;;;24.08;7.47;;;12.60;52.70;;;;;;5107425;28;20424;-66
2021/03/03 11:11:10;;;;;;;;;;;12.60;52.40;;;;;;5101777;28;20167;-66
2021/03/03 11:13:37;;;;;;;214.52;135.23;;;12.60;51.80;;;;;;5101936;28;19988;-66
2021/03/03 11:16:04;;;;;;;;;;;12.60;50.90;;;;;;5103540;28;20071;-66
2021/03/03 11:18:30;;;;;;;36.22;16.58;;;12.60;49.10;;;;;;5109801;28;19999;-66
2021/03/03 11:20:57;;;;;;;30.45;11.48;;;12.60;48.40;;;;;;5104983;28;20102;-67
2021/03/03 11:23:24;;;;;;;17.38;6.75;;;12.60;48.20;;;;;;5103969;28;20163;-66
2021/03/03 11:25:50;;;;;;;21.17;5.03;;;12.60;47.20;;;;;;5102784;28;20068;-66
2021/03/03 11:28:17;;;;;;;;;;;12.60;46.60;;;;;;5107674;28;20106;-66
2021/03/03 11:30:43;;;;;;;22.08;5.10;;;12.50;46.40;;;;;;5111685;28;19957;-65
2021/03/03 11:33:09;;;;;;;;;;;12.50;46.40;;;;;;5108143;28;20459;-66
2021/03/03 11:35:36;;;;;;;22.17;5.55;;;12.50;46.40;;;;;;5107269;28;19969;-66
2021/03/03 11:38:02;;;;;;;;;;;12.50;46.60;;;;;;5106982;28;20083;-66
2021/03/03 11:40:29;;;;;;;24.88;5.80;;;12.40;46.60;;;;;;5108560;28;19964;-66
2021/03/03 11:42:55;;;;;;;12.90;4.47;;;12.40;46.60;;;;;;5104236;28;20071;-67
2021/03/03 11:45:21;;;;;;;;;;;12.40;47.10;;;;;;5104285;28;20075;-66
2021/03/03 11:47:48;;;;;;;24.55;4.82;;;12.30;47.00;;;;;;5105934;28;19956;-67
2021/03/03 11:50:14;;;;;;;;;;;12.20;46.60;;;;;;5103280;28;20084;-66
2021/03/03 11:52:41;;;;;;;16.67;5.10;;;12.20;46.40;;;;;;5105186;28;20416;-66
2021/03/03 11:55:08;;;;;;;;;;;12.10;45.80;;;;;;5110904;28;20123;-66
2021/03/03 11:57:39;;;;;;;23.95;5.68;;;12.10;45.60;;;;;;5113389;28;19956;-67
2021/03/03 12:00:10;;;;;;;17.58;5.13;;;12.10;45.40;;;;;;5116116;28;20171;-66
2021/03/03 12:02:39;;;;;;;18.45;5.28;;;12.00;45.30;;;;;;5112548;28;20069;-66
2021/03/03 12:05:08;;;;;;;15.68;5.10;;;12.00;45.30;;;;;;5114190;28;20073;-65
2021/03/03 12:07:35;;;;;;;16.73;5.05;;;11.90;45.30;;;;;;5115540;28;20084;-66
2021/03/03 12:10:04;;;;;;;20.23;5.47;;;11.90;45.40;;;;;;5115326;28;20085;-67
2021/03/03 12:12:31;;;;;;;22.70;5.47;;;11.90;45.20;;;;;;5116474;28;20108;-66
2021/03/03 12:14:59;;;;;;;19.08;5.32;;;11.80;45.00;;;;;;5110363;28;20097;-67
2021/03/03 12:17:27;;;;;;;19.92;5.25;;;11.70;45.20;;;;;;5095018;28;20073;-65
2021/03/03 12:19:55;;;;;;;18.65;5.47;;;11.70;45.00;;;;;;5114404;28;20102;-67
2021/03/03 12:22:22;;;;;;;18.38;5.68;;;11.70;45.00;;;;;;5104478;28;20086;-66
2021/03/03 12:24:49;;;;;;;16.95;4.90;;;11.60;45.30;;;;;;5109402;28;20160;-67
2021/03/03 12:27:15;;;;;;;;;;;11.60;46.00;;;;;;5111961;28;20099;-67
2021/03/03 12:29:42;;;;;;;14.68;4.68;;;11.60;46.00;;;;;;5115519;28;20063;-66
2021/03/03 12:32:09;;;;;;;15.00;4.85;;;11.50;46.20;;;;;;5117496;28;20079;-66
2021/03/03 12:34:35;;;;;;;;;;;11.50;46.80;;;;;;5116351;28;20111;-66
2021/03/03 12:37:02;;;;;;;20.77;5.05;;;11.50;47.20;;;;;;5103112;28;19969;-67
2021/03/03 12:39:29;;;;;;;25.58;5.40;;;11.40;47.50;;;;;;5116377;28;20582;-66
2021/03/03 12:41:56;;;;;;;20.52;4.75;;;11.40;48.20;;;;;;5119682;28;20075;-67
2021/03/03 12:44:22;;;;;;;;;;;11.40;48.90;;;;;;5121017;28;20060;-65
2021/03/03 12:46:49;;;;;;;25.27;5.75;;;11.40;48.80;;;;;;5116874;28;19956;-67
2021/03/03 12:49:15;;;;;;;25.30;5.72;;;11.40;48.70;;;;;;5110791;28;20072;-66